Strona główna
METAR-TAF:

METAR-TAF

Lotnisko :

Platforma wiertnicza

P11-b, Holandia

Szerokość geograficzna: 52-21-36N, Długość geograficzna: 3-20-30E, wysokość: 24 m

Aktualna obserwacja pogody

Raport powstał 22 minut temu, godzina 05:25 UTC
Wiatr 12 kt od południowo-południowy zachód, zmienny między południowo-południowy wschód i zachodnio-południowy zachód
Temperatura 18°C
Wilgotność 94%
Ciśnienie 1020 hPa
Widzialność 10 km lub więcej

METAR: EHPG 230525Z AUTO 20012KT 160V240 9999 NCD 18/17 Q1020 W///H///

czas: 07:47 (05:47 UTC)


TAF: brakujący

Obserwacja i prognoza pogody dla ponad 4000 lotnisk (raport METAR i TAF).

Dostępne stacje oznaczono żółtymi i czerwonymi punktami na mapie.

Najedź kursorem aby zobaczyć nazwę stacji.

Kliknij aby zobaczyć obserwacje i prognozy pogody.

Aby zmienić mapę: kliknij na zielony przycisk z czarnym krzyżykiem, aby powiększyć; na zielony przycisk z myślnikiem, aby pomniejszyć; na zielone strzałki, aby przejść do map sąsiednich.


METAR-TAF: